sensor_id;sensor_type;location;lat;lon;timestamp;pressure;altitude;pressure_sealevel;temperature;humidity
46722;BME280;32455;43.430;23.136;2023-02-20T00:00:24;98462.16;;;11.75;51.53
46722;BME280;32455;43.430;23.136;2023-02-20T00:03:13;98478.59;;;11.48;52.57
46722;BME280;32455;43.430;23.136;2023-02-20T00:05:58;98477.53;;;11.49;52.83
46722;BME280;32455;43.430;23.136;2023-02-20T00:08:44;98468.69;;;11.42;53.11
46722;BME280;32455;43.430;23.136;2023-02-20T00:11:29;98473.28;;;11.60;52.91
46722;BME280;32455;43.430;23.136;2023-02-20T00:14:15;98481.44;;;11.28;54.12
46722;BME280;32455;43.430;23.136;2023-02-20T00:17:00;98480.19;;;11.31;54.01
46722;BME280;32455;43.430;23.136;2023-02-20T00:19:45;98505.97;;;11.39;54.16
46722;BME280;32455;43.430;23.136;2023-02-20T00:22:31;98512.19;;;11.39;54.63
46722;BME280;32455;43.430;23.136;2023-02-20T00:25:18;98560.41;;;11.41;56.50
46722;BME280;32455;43.430;23.136;2023-02-20T00:28:04;98551.63;;;11.20;61.02
46722;BME280;32455;43.430;23.136;2023-02-20T00:30:49;98525.25;;;10.72;67.27
46722;BME280;32455;43.430;23.136;2023-02-20T00:33:34;98510.34;;;10.18;71.35
46722;BME280;32455;43.430;23.136;2023-02-20T00:36:20;98513.31;;;9.97;74.28
46722;BME280;32455;43.430;23.136;2023-02-20T00:39:05;98498.06;;;9.71;75.17
46722;BME280;32455;43.430;23.136;2023-02-20T00:41:49;98496.03;;;9.66;75.26
46722;BME280;32455;43.430;23.136;2023-02-20T00:44:35;98494.59;;;9.57;74.78
46722;BME280;32455;43.430;23.136;2023-02-20T00:47:20;98495.00;;;9.54;74.67
46722;BME280;32455;43.430;23.136;2023-02-20T00:50:07;98517.09;;;9.43;74.89
46722;BME280;32455;43.430;23.136;2023-02-20T00:52:52;98505.13;;;9.39;75.38
46722;BME280;32455;43.430;23.136;2023-02-20T00:55:38;98502.44;;;9.45;74.85
46722;BME280;32455;43.430;23.136;2023-02-20T00:58:23;98480.78;;;9.47;73.39
46722;BME280;32455;43.430;23.136;2023-02-20T01:01:09;98496.03;;;9.60;69.88
46722;BME280;32455;43.430;23.136;2023-02-20T01:03:55;98483.22;;;9.62;69.02
46722;BME280;32455;43.430;23.136;2023-02-20T01:06:40;98470.66;;;9.69;66.52
46722;BME280;32455;43.430;23.136;2023-02-20T01:09:26;98458.28;;;9.61;66.28
46722;BME280;32455;43.430;23.136;2023-02-20T01:12:12;98482.38;;;9.81;64.78
46722;BME280;32455;43.430;23.136;2023-02-20T01:14:57;98488.28;;;10.10;63.54
46722;BME280;32455;43.430;23.136;2023-02-20T01:17:42;98484.81;;;9.96;64.00
46722;BME280;32455;43.430;23.136;2023-02-20T01:20:27;98482.75;;;9.98;63.42
46722;BME280;32455;43.430;23.136;2023-02-20T01:23:12;98478.94;;;10.19;61.59
46722;BME280;32455;43.430;23.136;2023-02-20T01:25:58;98476.13;;;10.00;62.39
46722;BME280;32455;43.430;23.136;2023-02-20T01:28:44;98474.66;;;10.04;62.24
46722;BME280;32455;43.430;23.136;2023-02-20T01:31:30;98462.06;;;10.05;62.69
46722;BME280;32455;43.430;23.136;2023-02-20T01:34:16;98488.06;;;10.24;61.80
46722;BME280;32455;43.430;23.136;2023-02-20T01:37:02;98479.78;;;10.33;60.78
46722;BME280;32455;43.430;23.136;2023-02-20T01:39:47;98484.94;;;10.27;61.34
46722;BME280;32455;43.430;23.136;2023-02-20T01:42:33;98481.84;;;10.24;61.03
46722;BME280;32455;43.430;23.136;2023-02-20T01:48:27;98477.84;;;10.40;60.80
46722;BME280;32455;43.430;23.136;2023-02-20T01:51:12;98478.94;;;10.19;61.78
46722;BME280;32455;43.430;23.136;2023-02-20T01:53:57;98481.03;;;10.10;61.12
46722;BME280;32455;43.430;23.136;2023-02-20T01:56:44;98469.88;;;10.20;61.07
46722;BME280;32455;43.430;23.136;2023-02-20T01:59:33;98443.72;;;9.95;60.81
46722;BME280;32455;43.430;23.136;2023-02-20T02:02:19;98489.72;;;10.06;60.30
46722;BME280;32455;43.430;23.136;2023-02-20T02:05:07;98488.94;;;9.98;60.46
46722;BME280;32455;43.430;23.136;2023-02-20T02:07:55;98511.78;;;10.21;59.92
46722;BME280;32455;43.430;23.136;2023-02-20T02:13:33;98510.56;;;10.10;60.17
46722;BME280;32455;43.430;23.136;2023-02-20T02:16:36;98519.25;;;10.12;58.93
46722;BME280;32455;43.430;23.136;2023-02-20T02:30:02;98488.97;;;9.85;57.93
46722;BME280;32455;43.430;23.136;2023-02-20T02:35:59;98481.28;;;10.02;57.61
46722;BME280;32455;43.430;23.136;2023-02-20T02:42:14;98467.38;;;10.18;55.67
46722;BME280;32455;43.430;23.136;2023-02-20T02:45:10;98469.06;;;10.13;55.35
46722;BME280;32455;43.430;23.136;2023-02-20T02:48:05;98464.97;;;10.03;54.62
46722;BME280;32455;43.430;23.136;2023-02-20T02:50:56;98495.97;;;9.99;55.10
46722;BME280;32455;43.430;23.136;2023-02-20T02:54:04;98497.16;;;10.17;53.32
46722;BME280;32455;43.430;23.136;2023-02-20T02:56:49;98494.22;;;10.32;51.82
46722;BME280;32455;43.430;23.136;2023-02-20T02:59:34;98473.84;;;10.11;52.72
46722;BME280;32455;43.430;23.136;2023-02-20T03:02:21;98475.25;;;10.13;52.82
46722;BME280;32455;43.430;23.136;2023-02-20T03:05:11;98467.84;;;10.09;53.01
46722;BME280;32455;43.430;23.136;2023-02-20T03:07:58;98476.06;;;10.20;51.98
46722;BME280;32455;43.430;23.136;2023-02-20T03:10:44;98462.84;;;10.25;50.00
46722;BME280;32455;43.430;23.136;2023-02-20T03:13:32;98469.03;;;10.26;50.40
46722;BME280;32455;43.430;23.136;2023-02-20T03:16:44;98475.03;;;10.21;49.19
46722;BME280;32455;43.430;23.136;2023-02-20T03:19:48;98458.28;;;10.33;49.04
46722;BME280;32455;43.430;23.136;2023-02-20T03:22:40;98473.50;;;10.45;48.12
46722;BME280;32455;43.430;23.136;2023-02-20T03:25:33;98492.50;;;10.44;47.21
46722;BME280;32455;43.430;23.136;2023-02-20T03:28:21;98496.19;;;10.56;47.15
46722;BME280;32455;43.430;23.136;2023-02-20T03:31:13;98465.31;;;10.27;47.65
46722;BME280;32455;43.430;23.136;2023-02-20T03:34:09;98483.06;;;10.35;47.91
46722;BME280;32455;43.430;23.136;2023-02-20T03:37:18;98501.88;;;10.21;48.35
46722;BME280;32455;43.430;23.136;2023-02-20T03:40:24;98498.34;;;10.27;48.23
46722;BME280;32455;43.430;23.136;2023-02-20T03:43:30;98481.00;;;10.23;48.99
46722;BME280;32455;43.430;23.136;2023-02-20T03:46:20;98503.16;;;10.12;49.91
46722;BME280;32455;43.430;23.136;2023-02-20T03:49:18;98510.19;;;10.07;50.02
46722;BME280;32455;43.430;23.136;2023-02-20T03:52:16;98515.50;;;10.33;48.76
46722;BME280;32455;43.430;23.136;2023-02-20T03:55:03;98515.03;;;10.43;47.67
46722;BME280;32455;43.430;23.136;2023-02-20T03:57:54;98519.03;;;10.20;48.61
46722;BME280;32455;43.430;23.136;2023-02-20T04:00:42;98516.75;;;10.31;48.66
46722;BME280;32455;43.430;23.136;2023-02-20T04:03:32;98507.88;;;10.17;48.64
46722;BME280;32455;43.430;23.136;2023-02-20T04:06:20;98497.00;;;9.98;48.34
46722;BME280;32455;43.430;23.136;2023-02-20T04:09:16;98510.38;;;10.05;47.54
46722;BME280;32455;43.430;23.136;2023-02-20T04:12:10;98517.63;;;10.04;47.73
46722;BME280;32455;43.430;23.136;2023-02-20T04:14:59;98505.63;;;10.14;46.92
46722;BME280;32455;43.430;23.136;2023-02-20T04:18:00;98516.41;;;9.81;48.76
46722;BME280;32455;43.430;23.136;2023-02-20T04:20:52;98516.88;;;9.77;49.65
46722;BME280;32455;43.430;23.136;2023-02-20T04:23:40;98511.88;;;9.94;48.14
46722;BME280;32455;43.430;23.136;2023-02-20T04:26:26;98529.88;;;9.74;48.88
46722;BME280;32455;43.430;23.136;2023-02-20T04:29:12;98519.94;;;9.88;47.98
46722;BME280;32455;43.430;23.136;2023-02-20T04:31:57;98541.41;;;9.74;48.97
46722;BME280;32455;43.430;23.136;2023-02-20T04:34:43;98546.41;;;9.64;48.99
46722;BME280;32455;43.430;23.136;2023-02-20T04:37:29;98552.16;;;9.81;48.20
46722;BME280;32455;43.430;23.136;2023-02-20T04:40:17;98555.41;;;10.10;46.42
46722;BME280;32455;43.430;23.136;2023-02-20T04:43:02;98566.38;;;10.08;46.16
46722;BME280;32455;43.430;23.136;2023-02-20T04:45:48;98571.94;;;10.07;45.55
46722;BME280;32455;43.430;23.136;2023-02-20T04:48:33;98574.03;;;9.91;45.75
46722;BME280;32455;43.430;23.136;2023-02-20T04:51:19;98574.00;;;10.04;46.41
46722;BME280;32455;43.430;23.136;2023-02-20T04:54:04;98570.31;;;9.86;46.32
46722;BME280;32455;43.430;23.136;2023-02-20T04:56:50;98597.34;;;9.97;45.44
46722;BME280;32455;43.430;23.136;2023-02-20T04:59:35;98599.19;;;10.10;44.80
46722;BME280;32455;43.430;23.136;2023-02-20T05:02:21;98589.31;;;9.91;45.62
46722;BME280;32455;43.430;23.136;2023-02-20T05:05:16;98602.53;;;9.86;43.86
46722;BME280;32455;43.430;23.136;2023-02-20T05:08:07;98599.03;;;9.65;43.71
46722;BME280;32455;43.430;23.136;2023-02-20T05:10:53;98606.88;;;9.60;44.54
46722;BME280;32455;43.430;23.136;2023-02-20T05:13:38;98595.94;;;9.68;44.19
46722;BME280;32455;43.430;23.136;2023-02-20T05:16:23;98614.72;;;9.55;44.37
46722;BME280;32455;43.430;23.136;2023-02-20T05:19:09;98632.19;;;9.31;42.43
46722;BME280;32455;43.430;23.136;2023-02-20T05:21:55;98628.09;;;9.35;40.26
46722;BME280;32455;43.430;23.136;2023-02-20T05:24:59;98628.50;;;9.39;40.35
46722;BME280;32455;43.430;23.136;2023-02-20T05:27:45;98634.50;;;9.67;37.84
46722;BME280;32455;43.430;23.136;2023-02-20T05:30:30;98626.00;;;9.31;38.66
46722;BME280;32455;43.430;23.136;2023-02-20T05:33:15;98657.22;;;9.51;38.29
46722;BME280;32455;43.430;23.136;2023-02-20T05:36:00;98662.16;;;9.54;39.01
46722;BME280;32455;43.430;23.136;2023-02-20T05:38:45;98660.47;;;9.34;36.74
46722;BME280;32455;43.430;23.136;2023-02-20T05:41:32;98659.69;;;9.46;38.79
46722;BME280;32455;43.430;23.136;2023-02-20T05:44:17;98672.56;;;9.16;38.82
46722;BME280;32455;43.430;23.136;2023-02-20T05:47:03;98670.88;;;9.02;39.64
46722;BME280;32455;43.430;23.136;2023-02-20T05:49:48;98688.00;;;9.08;38.21
46722;BME280;32455;43.430;23.136;2023-02-20T05:52:33;98695.34;;;9.40;36.44
46722;BME280;32455;43.430;23.136;2023-02-20T05:55:19;98700.84;;;9.19;34.11
46722;BME280;32455;43.430;23.136;2023-02-20T05:58:04;98704.47;;;9.59;32.21
46722;BME280;32455;43.430;23.136;2023-02-20T06:00:50;98672.06;;;9.61;32.65
46722;BME280;32455;43.430;23.136;2023-02-20T06:03:35;98698.09;;;9.60;31.63
46722;BME280;32455;43.430;23.136;2023-02-20T06:06:20;98687.13;;;9.48;32.18
46722;BME280;32455;43.430;23.136;2023-02-20T06:09:10;98699.72;;;9.48;33.00
46722;BME280;32455;43.430;23.136;2023-02-20T06:11:55;98695.81;;;9.64;32.17
46722;BME280;32455;43.430;23.136;2023-02-20T06:14:41;98700.16;;;9.71;32.59
46722;BME280;32455;43.430;23.136;2023-02-20T06:17:26;98706.78;;;9.69;32.18
46722;BME280;32455;43.430;23.136;2023-02-20T06:20:13;98713.56;;;9.71;33.62
46722;BME280;32455;43.430;23.136;2023-02-20T06:22:59;98705.06;;;9.48;33.75
46722;BME280;32455;43.430;23.136;2023-02-20T06:25:45;98718.50;;;9.61;32.44
46722;BME280;32455;43.430;23.136;2023-02-20T06:28:30;98712.13;;;9.56;33.06
46722;BME280;32455;43.430;23.136;2023-02-20T06:31:26;98707.34;;;9.51;33.40
46722;BME280;32455;43.430;23.136;2023-02-20T06:34:13;98713.97;;;9.55;31.87
46722;BME280;32455;43.430;23.136;2023-02-20T06:37:00;98720.56;;;9.59;32.26
46722;BME280;32455;43.430;23.136;2023-02-20T06:39:46;98703.25;;;9.62;31.38
46722;BME280;32455;43.430;23.136;2023-02-20T06:42:33;98689.84;;;9.68;30.59
46722;BME280;32455;43.430;23.136;2023-02-20T06:45:18;98691.50;;;9.83;31.45
46722;BME280;32455;43.430;23.136;2023-02-20T06:55:52;98721.22;;;10.74;27.85
46722;BME280;32455;43.430;23.136;2023-02-20T06:58:59;98718.72;;;10.79;28.98
46722;BME280;32455;43.430;23.136;2023-02-20T07:01:46;98706.59;;;10.63;28.75
46722;BME280;32455;43.430;23.136;2023-02-20T07:04:31;98724.34;;;10.77;28.06
46722;BME280;32455;43.430;23.136;2023-02-20T07:07:16;98714.81;;;10.88;27.71
46722;BME280;32455;43.430;23.136;2023-02-20T07:10:02;98724.75;;;10.88;26.25
46722;BME280;32455;43.430;23.136;2023-02-20T07:12:48;98724.94;;;10.93;26.44
46722;BME280;32455;43.430;23.136;2023-02-20T07:15:33;98730.09;;;10.94;25.52
46722;BME280;32455;43.430;23.136;2023-02-20T07:18:18;98729.25;;;10.87;25.55
46722;BME280;32455;43.430;23.136;2023-02-20T07:21:07;98725.78;;;10.80;25.25
46722;BME280;32455;43.430;23.136;2023-02-20T07:23:52;98729.53;;;10.72;25.52
46722;BME280;32455;43.430;23.136;2023-02-20T07:26:38;98742.53;;;10.75;23.47
46722;BME280;32455;43.430;23.136;2023-02-20T07:29:24;98750.63;;;10.62;24.93
46722;BME280;32455;43.430;23.136;2023-02-20T07:32:10;98757.66;;;10.57;23.45
46722;BME280;32455;43.430;23.136;2023-02-20T07:34:55;98750.63;;;10.62;23.09
46722;BME280;32455;43.430;23.136;2023-02-20T07:37:41;98771.09;;;10.57;22.44
46722;BME280;32455;43.430;23.136;2023-02-20T07:40:26;98777.91;;;10.52;23.32
46722;BME280;32455;43.430;23.136;2023-02-20T07:43:12;98772.53;;;10.72;22.23
46722;BME280;32455;43.430;23.136;2023-02-20T07:45:58;98764.19;;;11.07;21.36
46722;BME280;32455;43.430;23.136;2023-02-20T07:48:43;98764.25;;;11.45;22.00
46722;BME280;32455;43.430;23.136;2023-02-20T07:51:29;98779.47;;;11.65;21.40
46722;BME280;32455;43.430;23.136;2023-02-20T07:54:14;98777.97;;;11.75;20.84
46722;BME280;32455;43.430;23.136;2023-02-20T07:56:59;98791.00;;;11.85;20.41
46722;BME280;32455;43.430;23.136;2023-02-20T07:59:45;98776.72;;;11.85;21.39
46722;BME280;32455;43.430;23.136;2023-02-20T08:02:30;98776.81;;;12.03;20.99
46722;BME280;32455;43.430;23.136;2023-02-20T08:05:15;98783.38;;;12.14;21.54
46722;BME280;32455;43.430;23.136;2023-02-20T08:08:00;98786.16;;;12.00;21.62
46722;BME280;32455;43.430;23.136;2023-02-20T08:10:45;98784.16;;;12.21;21.98
46722;BME280;32455;43.430;23.136;2023-02-20T08:13:31;98790.00;;;12.11;21.81
46722;BME280;32455;43.430;23.136;2023-02-20T08:16:16;98792.19;;;12.27;23.46
46722;BME280;32455;43.430;23.136;2023-02-20T08:19:01;98782.81;;;12.05;22.36
46722;BME280;32455;43.430;23.136;2023-02-20T08:21:46;98800.09;;;12.22;21.90
46722;BME280;32455;43.430;23.136;2023-02-20T08:24:32;98807.84;;;12.44;23.06
46722;BME280;32455;43.430;23.136;2023-02-20T08:27:16;98809.09;;;12.41;21.58
46722;BME280;32455;43.430;23.136;2023-02-20T08:30:01;98796.56;;;12.53;22.37
46722;BME280;32455;43.430;23.136;2023-02-20T08:32:46;98816.91;;;12.49;21.11
46722;BME280;32455;43.430;23.136;2023-02-20T08:35:32;98824.59;;;12.71;22.36
46722;BME280;32455;43.430;23.136;2023-02-20T08:38:26;98819.56;;;12.56;22.63
46722;BME280;32455;43.430;23.136;2023-02-20T08:41:11;98816.44;;;12.59;21.98
46722;BME280;32455;43.430;23.136;2023-02-20T08:43:57;98823.41;;;12.67;22.62
46722;BME280;32455;43.430;23.136;2023-02-20T08:46:47;98818.78;;;12.74;22.33
46722;BME280;32455;43.430;23.136;2023-02-20T08:49:32;98815.53;;;12.65;21.88
46722;BME280;32455;43.430;23.136;2023-02-20T08:52:18;98827.03;;;12.79;23.46
46722;BME280;32455;43.430;23.136;2023-02-20T08:55:04;98840.19;;;12.94;22.59
46722;BME280;32455;43.430;23.136;2023-02-20T08:57:49;98841.41;;;12.98;22.86
46722;BME280;32455;43.430;23.136;2023-02-20T09:00:34;98837.88;;;12.72;23.38
46722;BME280;32455;43.430;23.136;2023-02-20T09:03:20;98838.75;;;12.91;23.00
46722;BME280;32455;43.430;23.136;2023-02-20T09:06:06;98840.94;;;13.01;22.44
46722;BME280;32455;43.430;23.136;2023-02-20T09:08:51;98845.91;;;13.04;21.90
46722;BME280;32455;43.430;23.136;2023-02-20T09:11:37;98832.00;;;12.82;21.41
46722;BME280;32455;43.430;23.136;2023-02-20T09:14:27;98853.84;;;12.74;20.52
46722;BME280;32455;43.430;23.136;2023-02-20T09:17:13;98835.09;;;13.04;20.74
46722;BME280;32455;43.430;23.136;2023-02-20T09:19:58;98865.44;;;12.99;19.61
46722;BME280;32455;43.430;23.136;2023-02-20T09:22:45;98862.38;;;12.96;20.54
46722;BME280;32455;43.430;23.136;2023-02-20T09:25:30;98834.28;;;13.03;20.51
46722;BME280;32455;43.430;23.136;2023-02-20T09:28:16;98865.47;;;13.24;20.73
46722;BME280;32455;43.430;23.136;2023-02-20T09:31:02;98851.03;;;13.12;20.02
46722;BME280;32455;43.430;23.136;2023-02-20T09:33:48;98847.63;;;13.42;20.49
46722;BME280;32455;43.430;23.136;2023-02-20T09:36:34;98849.41;;;13.48;20.50
46722;BME280;32455;43.430;23.136;2023-02-20T09:39:19;98863.75;;;13.48;20.36
46722;BME280;32455;43.430;23.136;2023-02-20T09:42:31;98857.66;;;13.35;21.34
46722;BME280;32455;43.430;23.136;2023-02-20T09:45:22;98866.69;;;13.22;20.36
46722;BME280;32455;43.430;23.136;2023-02-20T09:48:22;98857.75;;;13.28;20.31
46722;BME280;32455;43.430;23.136;2023-02-20T09:51:17;98854.38;;;13.69;21.76
46722;BME280;32455;43.430;23.136;2023-02-20T09:54:07;98850.56;;;13.59;20.85
46722;BME280;32455;43.430;23.136;2023-02-20T09:57:04;98829.25;;;13.32;20.00
46722;BME280;32455;43.430;23.136;2023-02-20T09:59:53;98848.31;;;13.37;20.34
46722;BME280;32455;43.430;23.136;2023-02-20T10:02:52;98824.06;;;13.31;20.62
46722;BME280;32455;43.430;23.136;2023-02-20T10:05:41;98826.84;;;13.24;21.58
46722;BME280;32455;43.430;23.136;2023-02-20T10:08:27;98830.69;;;13.10;21.32
46722;BME280;32455;43.430;23.136;2023-02-20T10:11:29;98839.56;;;13.17;20.95
46722;BME280;32455;43.430;23.136;2023-02-20T10:17:39;98830.22;;;13.56;20.04
46722;BME280;32455;43.430;23.136;2023-02-20T10:26:19;98841.84;;;12.95;20.38
46722;BME280;32455;43.430;23.136;2023-02-20T10:29:21;98853.72;;;12.62;19.37
46722;BME280;32455;43.430;23.136;2023-02-20T10:32:15;98837.66;;;12.49;20.43
46722;BME280;32455;43.430;23.136;2023-02-20T10:35:07;98825.31;;;12.35;20.61
46722;BME280;32455;43.430;23.136;2023-02-20T10:37:56;98852.34;;;12.53;21.03
46722;BME280;32455;43.430;23.136;2023-02-20T10:40:52;98846.63;;;12.43;22.23
46722;BME280;32455;43.430;23.136;2023-02-20T10:47:03;98844.44;;;12.26;22.08
46722;BME280;32455;43.430;23.136;2023-02-20T10:49:56;98852.94;;;12.23;22.08
46722;BME280;32455;43.430;23.136;2023-02-20T10:53:01;98860.59;;;12.58;22.53
46722;BME280;32455;43.430;23.136;2023-02-20T10:58:41;98878.44;;;12.59;22.08
46722;BME280;32455;43.430;23.136;2023-02-20T11:01:34;98875.47;;;12.36;22.56
46722;BME280;32455;43.430;23.136;2023-02-20T11:04:25;98873.09;;;12.52;21.56
46722;BME280;32455;43.430;23.136;2023-02-20T11:07:16;98858.06;;;12.63;22.14
46722;BME280;32455;43.430;23.136;2023-02-20T11:10:06;98866.50;;;12.98;22.08
46722;BME280;32455;43.430;23.136;2023-02-20T11:12:55;98870.41;;;13.02;23.26
46722;BME280;32455;43.430;23.136;2023-02-20T11:15:44;98864.06;;;13.15;23.92
46722;BME280;32455;43.430;23.136;2023-02-20T11:18:34;98865.41;;;13.06;22.75
46722;BME280;32455;43.430;23.136;2023-02-20T11:21:42;98876.06;;;13.19;22.61
46722;BME280;32455;43.430;23.136;2023-02-20T11:24:32;98856.03;;;13.34;23.06
46722;BME280;32455;43.430;23.136;2023-02-20T11:27:23;98847.63;;;13.60;23.56
46722;BME280;32455;43.430;23.136;2023-02-20T11:30:27;98872.84;;;13.54;23.16
46722;BME280;32455;43.430;23.136;2023-02-20T11:33:21;98851.38;;;13.59;24.33
46722;BME280;32455;43.430;23.136;2023-02-20T11:36:21;98837.59;;;13.49;25.37
46722;BME280;32455;43.430;23.136;2023-02-20T11:39:44;98842.97;;;13.31;26.05
46722;BME280;32455;43.430;23.136;2023-02-20T11:42:32;98836.84;;;13.17;28.10
46722;BME280;32455;43.430;23.136;2023-02-20T11:45:28;98842.91;;;13.12;28.97
46722;BME280;32455;43.430;23.136;2023-02-20T11:48:17;98845.06;;;13.47;29.35
46722;BME280;32455;43.430;23.136;2023-02-20T11:51:04;98849.59;;;13.71;30.64
46722;BME280;32455;43.430;23.136;2023-02-20T11:54:08;98860.16;;;13.36;31.10
46722;BME280;32455;43.430;23.136;2023-02-20T12:00:25;98857.13;;;13.44;32.35
46722;BME280;32455;43.430;23.136;2023-02-20T12:03:13;98837.38;;;13.50;32.85
46722;BME280;32455;43.430;23.136;2023-02-20T12:09:22;98830.31;;;13.68;32.71
46722;BME280;32455;43.430;23.136;2023-02-20T12:12:12;98825.28;;;13.53;32.18
46722;BME280;32455;43.430;23.136;2023-02-20T12:15:23;98821.25;;;13.62;33.02
46722;BME280;32455;43.430;23.136;2023-02-20T12:31:11;98795.25;;;13.61;34.60
46722;BME280;32455;43.430;23.136;2023-02-20T12:37:08;98807.72;;;13.25;35.04
46722;BME280;32455;43.430;23.136;2023-02-20T12:43:11;98823.63;;;13.34;35.33
46722;BME280;32455;43.430;23.136;2023-02-20T12:46:22;98815.75;;;13.50;35.08
46722;BME280;32455;43.430;23.136;2023-02-20T13:01:34;98847.34;;;13.07;36.47
46722;BME280;32455;43.430;23.136;2023-02-20T13:04:29;98842.91;;;13.12;37.11
46722;BME280;32455;43.430;23.136;2023-02-20T13:07:20;98828.75;;;13.17;37.60
46722;BME280;32455;43.430;23.136;2023-02-20T13:10:27;98825.59;;;13.45;37.07
46722;BME280;32455;43.430;23.136;2023-02-20T13:13:14;98818.84;;;13.54;36.82
46722;BME280;32455;43.430;23.136;2023-02-20T13:16:21;98817.28;;;13.21;37.22
46722;BME280;32455;43.430;23.136;2023-02-20T13:19:31;98827.16;;;13.52;37.28
46722;BME280;32455;43.430;23.136;2023-02-20T13:22:20;98821.41;;;13.49;38.10
46722;BME280;32455;43.430;23.136;2023-02-20T13:28:26;98815.91;;;13.56;38.04
46722;BME280;32455;43.430;23.136;2023-02-20T13:31:18;98784.41;;;13.49;37.74
46722;BME280;32455;43.430;23.136;2023-02-20T13:36:51;98795.88;;;13.63;37.72
46722;BME280;32455;43.430;23.136;2023-02-20T13:39:39;98799.63;;;13.62;38.62
46722;BME280;32455;43.430;23.136;2023-02-20T13:42:27;98805.03;;;13.44;37.76
46722;BME280;32455;43.430;23.136;2023-02-20T13:45:39;98809.19;;;13.21;38.27
46722;BME280;32455;43.430;23.136;2023-02-20T13:54:21;98821.09;;;13.14;38.87
46722;BME280;32455;43.430;23.136;2023-02-20T13:57:16;98813.91;;;13.08;39.27
46722;BME280;32455;43.430;23.136;2023-02-20T14:03:20;98833.97;;;12.68;41.20
46722;BME280;32455;43.430;23.136;2023-02-20T14:06:09;98851.81;;;12.69;41.04
46722;BME280;32455;43.430;23.136;2023-02-20T14:09:10;98838.06;;;12.77;40.85
46722;BME280;32455;43.430;23.136;2023-02-20T14:12:12;98852.63;;;12.70;41.96
46722;BME280;32455;43.430;23.136;2023-02-20T14:15:02;98847.59;;;12.48;41.96
46722;BME280;32455;43.430;23.136;2023-02-20T14:17:51;98852.59;;;12.76;41.97
46722;BME280;32455;43.430;23.136;2023-02-20T14:20:36;98855.19;;;12.58;41.78
46722;BME280;32455;43.430;23.136;2023-02-20T14:23:27;98848.19;;;12.25;42.71
46722;BME280;32455;43.430;23.136;2023-02-20T14:26:24;98839.22;;;12.32;42.80
46722;BME280;32455;43.430;23.136;2023-02-20T14:29:22;98831.56;;;11.97;43.50
46722;BME280;32455;43.430;23.136;2023-02-20T14:32:12;98828.09;;;12.21;43.35
46722;BME280;32455;43.430;23.136;2023-02-20T14:35:10;98832.09;;;12.44;43.11
46722;BME280;32455;43.430;23.136;2023-02-20T14:38:05;98839.44;;;12.30;43.74
46722;BME280;32455;43.430;23.136;2023-02-20T14:40:52;98827.28;;;12.21;44.17
46722;BME280;32455;43.430;23.136;2023-02-20T14:43:38;98835.16;;;12.16;43.49
46722;BME280;32455;43.430;23.136;2023-02-20T14:46:25;98843.63;;;12.26;43.75
46722;BME280;32455;43.430;23.136;2023-02-20T14:49:16;98846.06;;;12.27;45.23
46722;BME280;32455;43.430;23.136;2023-02-20T14:54:58;98874.31;;;12.25;43.67
46722;BME280;32455;43.430;23.136;2023-02-20T14:57:44;98864.97;;;11.83;44.41
46722;BME280;32455;43.430;23.136;2023-02-20T15:00:35;98867.66;;;11.83;45.71
46722;BME280;32455;43.430;23.136;2023-02-20T15:03:23;98865.59;;;11.71;44.51
46722;BME280;32455;43.430;23.136;2023-02-20T15:06:13;98867.06;;;11.67;45.22
46722;BME280;32455;43.430;23.136;2023-02-20T15:08:59;98853.78;;;11.72;45.38
46722;BME280;32455;43.430;23.136;2023-02-20T15:11:53;98847.28;;;11.42;46.07
46722;BME280;32455;43.430;23.136;2023-02-20T15:14:41;98852.31;;;11.18;46.85
46722;BME280;32455;43.430;23.136;2023-02-20T15:17:33;98854.28;;;11.43;46.77
46722;BME280;32455;43.430;23.136;2023-02-20T15:26:33;98847.50;;;11.34;47.00
46722;BME280;32455;43.430;23.136;2023-02-20T15:32:18;98838.06;;;10.98;47.71
46722;BME280;32455;43.430;23.136;2023-02-20T15:35:04;98839.09;;;10.84;47.95
46722;BME280;32455;43.430;23.136;2023-02-20T15:37:53;98833.72;;;10.70;47.86
46722;BME280;32455;43.430;23.136;2023-02-20T15:40:40;98846.34;;;10.76;47.51
46722;BME280;32455;43.430;23.136;2023-02-20T15:43:25;98836.00;;;10.60;48.44
46722;BME280;32455;43.430;23.136;2023-02-20T15:46:11;98838.69;;;10.53;49.04
46722;BME280;32455;43.430;23.136;2023-02-20T15:48:58;98830.59;;;10.34;49.48
46722;BME280;32455;43.430;23.136;2023-02-20T15:51:44;98846.13;;;10.45;48.58
46722;BME280;32455;43.430;23.136;2023-02-20T15:54:29;98837.63;;;10.48;48.18
46722;BME280;32455;43.430;23.136;2023-02-20T15:57:15;98850.84;;;10.30;49.57
46722;BME280;32455;43.430;23.136;2023-02-20T16:00:01;98849.78;;;10.24;49.01
46722;BME280;32455;43.430;23.136;2023-02-20T16:02:47;98843.78;;;10.15;49.43
46722;BME280;32455;43.430;23.136;2023-02-20T16:05:32;98846.25;;;10.17;49.50
46722;BME280;32455;43.430;23.136;2023-02-20T16:08:18;98846.59;;;9.94;49.97
46722;BME280;32455;43.430;23.136;2023-02-20T16:11:05;98852.94;;;9.79;50.63
46722;BME280;32455;43.430;23.136;2023-02-20T16:13:57;98850.47;;;9.78;50.67
46722;BME280;32455;43.430;23.136;2023-02-20T16:16:45;98846.53;;;9.74;51.19
46722;BME280;32455;43.430;23.136;2023-02-20T16:19:30;98852.88;;;9.66;51.40
46722;BME280;32455;43.430;23.136;2023-02-20T16:22:15;98857.88;;;9.76;50.50
46722;BME280;32455;43.430;23.136;2023-02-20T16:25:01;98843.69;;;9.82;50.51
46722;BME280;32455;43.430;23.136;2023-02-20T16:27:47;98853.28;;;9.57;51.57
46722;BME280;32455;43.430;23.136;2023-02-20T16:30:38;98856.31;;;9.47;51.92
46722;BME280;32455;43.430;23.136;2023-02-20T16:33:24;98850.53;;;9.43;51.94
46722;BME280;32455;43.430;23.136;2023-02-20T16:36:10;98855.41;;;9.33;52.65
46722;BME280;32455;43.430;23.136;2023-02-20T16:38:55;98864.84;;;9.22;52.92